sensor_id;sensor_type;location;lat;lon;timestamp;temperature;humidity
75994;DHT22;64680;53.800;9.988;2023-04-03T00:01:15;-1.70;52.00
75994;DHT22;64680;53.800;9.988;2023-04-03T00:03:41;-1.70;52.40
75994;DHT22;64680;53.800;9.988;2023-04-03T00:06:08;-1.80;51.80
75994;DHT22;64680;53.800;9.988;2023-04-03T00:08:35;-1.80;52.00
75994;DHT22;64680;53.800;9.988;2023-04-03T00:11:01;-1.80;52.50
75994;DHT22;64680;53.800;9.988;2023-04-03T00:13:27;-1.90;52.90
75994;DHT22;64680;53.800;9.988;2023-04-03T00:15:53;-1.90;53.80
75994;DHT22;64680;53.800;9.988;2023-04-03T00:18:19;-2.00;54.40
75994;DHT22;64680;53.800;9.988;2023-04-03T00:20:45;-2.00;55.10
75994;DHT22;64680;53.800;9.988;2023-04-03T00:23:10;-2.00;55.20
75994;DHT22;64680;53.800;9.988;2023-04-03T00:25:36;-2.10;55.40
75994;DHT22;64680;53.800;9.988;2023-04-03T00:28:03;-2.10;55.40
75994;DHT22;64680;53.800;9.988;2023-04-03T00:30:29;-2.10;55.80
75994;DHT22;64680;53.800;9.988;2023-04-03T00:32:55;-2.10;56.10
75994;DHT22;64680;53.800;9.988;2023-04-03T00:35:22;-2.10;56.10
75994;DHT22;64680;53.800;9.988;2023-04-03T00:37:50;-2.10;56.10
75994;DHT22;64680;53.800;9.988;2023-04-03T00:40:16;-2.10;56.60
75994;DHT22;64680;53.800;9.988;2023-04-03T00:42:55;-2.20;56.70
75994;DHT22;64680;53.800;9.988;2023-04-03T00:45:37;-2.20;56.60
75994;DHT22;64680;53.800;9.988;2023-04-03T00:48:05;-2.20;56.30
75994;DHT22;64680;53.800;9.988;2023-04-03T00:50:34;-2.30;56.40
75994;DHT22;64680;53.800;9.988;2023-04-03T00:53:01;-2.30;56.70
75994;DHT22;64680;53.800;9.988;2023-04-03T00:55:27;-2.30;56.80
75994;DHT22;64680;53.800;9.988;2023-04-03T00:57:54;-2.30;57.00
75994;DHT22;64680;53.800;9.988;2023-04-03T01:00:21;-2.30;57.50
75994;DHT22;64680;53.800;9.988;2023-04-03T01:02:48;-2.30;57.40
75994;DHT22;64680;53.800;9.988;2023-04-03T01:05:15;-2.30;57.40
75994;DHT22;64680;53.800;9.988;2023-04-03T01:07:41;-2.20;57.90
75994;DHT22;64680;53.800;9.988;2023-04-03T01:10:10;-2.20;57.90
75994;DHT22;64680;53.800;9.988;2023-04-03T01:12:41;-2.30;58.50
75994;DHT22;64680;53.800;9.988;2023-04-03T01:15:10;-2.30;57.90
75994;DHT22;64680;53.800;9.988;2023-04-03T01:17:46;-2.30;58.00
75994;DHT22;64680;53.800;9.988;2023-04-03T01:25:54;-2.40;58.00
75994;DHT22;64680;53.800;9.988;2023-04-03T01:28:32;-2.40;58.30
75994;DHT22;64680;53.800;9.988;2023-04-03T01:34:12;-2.50;59.00
75994;DHT22;64680;53.800;9.988;2023-04-03T01:36:37;-2.50;59.30
75994;DHT22;64680;53.800;9.988;2023-04-03T01:39:03;-2.50;59.80
75994;DHT22;64680;53.800;9.988;2023-04-03T01:41:29;-2.50;59.80
75994;DHT22;64680;53.800;9.988;2023-04-03T01:43:55;-2.50;59.90
75994;DHT22;64680;53.800;9.988;2023-04-03T01:46:20;-2.50;60.00
75994;DHT22;64680;53.800;9.988;2023-04-03T01:48:47;-2.60;59.80
75994;DHT22;64680;53.800;9.988;2023-04-03T01:51:12;-2.60;59.90
75994;DHT22;64680;53.800;9.988;2023-04-03T01:53:38;-2.60;60.30
75994;DHT22;64680;53.800;9.988;2023-04-03T01:56:04;-2.60;60.70
75994;DHT22;64680;53.800;9.988;2023-04-03T01:58:30;-2.60;61.30
75994;DHT22;64680;53.800;9.988;2023-04-03T02:00:55;-2.60;61.00
75994;DHT22;64680;53.800;9.988;2023-04-03T02:03:21;-2.60;60.80
75994;DHT22;64680;53.800;9.988;2023-04-03T02:05:47;-2.60;60.80
75994;DHT22;64680;53.800;9.988;2023-04-03T02:08:12;-2.70;60.60
75994;DHT22;64680;53.800;9.988;2023-04-03T02:10:39;-2.70;60.70
75994;DHT22;64680;53.800;9.988;2023-04-03T02:13:04;-2.70;61.00
75994;DHT22;64680;53.800;9.988;2023-04-03T02:15:30;-2.70;61.10
75994;DHT22;64680;53.800;9.988;2023-04-03T02:17:56;-2.70;61.60
75994;DHT22;64680;53.800;9.988;2023-04-03T02:20:21;-2.70;61.60
75994;DHT22;64680;53.800;9.988;2023-04-03T02:22:47;-2.70;61.90
75994;DHT22;64680;53.800;9.988;2023-04-03T02:25:13;-2.70;62.10
75994;DHT22;64680;53.800;9.988;2023-04-03T02:27:39;-2.70;62.40
75994;DHT22;64680;53.800;9.988;2023-04-03T02:30:05;-2.80;62.20
75994;DHT22;64680;53.800;9.988;2023-04-03T02:32:31;-2.80;62.20
75994;DHT22;64680;53.800;9.988;2023-04-03T02:34:57;-2.80;62.50
75994;DHT22;64680;53.800;9.988;2023-04-03T02:37:22;-2.90;62.00
75994;DHT22;64680;53.800;9.988;2023-04-03T02:39:48;-2.80;62.00
75994;DHT22;64680;53.800;9.988;2023-04-03T02:42:14;-2.90;62.20
75994;DHT22;64680;53.800;9.988;2023-04-03T02:44:39;-2.90;62.20
75994;DHT22;64680;53.800;9.988;2023-04-03T02:47:05;-2.90;62.60
75994;DHT22;64680;53.800;9.988;2023-04-03T02:49:31;-2.90;63.00
75994;DHT22;64680;53.800;9.988;2023-04-03T02:51:57;-2.90;63.50
75994;DHT22;64680;53.800;9.988;2023-04-03T02:54:23;-2.90;63.50
75994;DHT22;64680;53.800;9.988;2023-04-03T02:56:49;-2.90;64.10
75994;DHT22;64680;53.800;9.988;2023-04-03T02:59:15;-2.90;64.40
75994;DHT22;64680;53.800;9.988;2023-04-03T03:01:41;-2.90;64.60
75994;DHT22;64680;53.800;9.988;2023-04-03T03:04:07;-2.90;64.50
75994;DHT22;64680;53.800;9.988;2023-04-03T03:06:33;-2.90;64.70
75994;DHT22;64680;53.800;9.988;2023-04-03T03:08:58;-2.90;64.60
75994;DHT22;64680;53.800;9.988;2023-04-03T03:11:24;-2.90;64.90
75994;DHT22;64680;53.800;9.988;2023-04-03T03:13:50;-3.00;64.80
75994;DHT22;64680;53.800;9.988;2023-04-03T03:16:16;-2.90;64.80
75994;DHT22;64680;53.800;9.988;2023-04-03T03:18:41;-3.00;64.60
75994;DHT22;64680;53.800;9.988;2023-04-03T03:21:08;-3.00;64.60
75994;DHT22;64680;53.800;9.988;2023-04-03T03:23:34;-3.00;64.90
75994;DHT22;64680;53.800;9.988;2023-04-03T03:26:03;-3.10;65.00
75994;DHT22;64680;53.800;9.988;2023-04-03T03:28:29;-3.10;65.10
75994;DHT22;64680;53.800;9.988;2023-04-03T03:30:54;-3.10;65.20
75994;DHT22;64680;53.800;9.988;2023-04-03T03:33:20;-3.10;65.30
75994;DHT22;64680;53.800;9.988;2023-04-03T03:35:46;-3.10;65.50
75994;DHT22;64680;53.800;9.988;2023-04-03T03:38:11;-3.10;65.40
75994;DHT22;64680;53.800;9.988;2023-04-03T03:40:37;-3.10;65.50
75994;DHT22;64680;53.800;9.988;2023-04-03T03:43:03;-3.20;65.50
75994;DHT22;64680;53.800;9.988;2023-04-03T03:45:29;-3.20;65.70
75994;DHT22;64680;53.800;9.988;2023-04-03T03:47:54;-3.20;66.10
75994;DHT22;64680;53.800;9.988;2023-04-03T03:50:20;-3.20;65.80
75994;DHT22;64680;53.800;9.988;2023-04-03T03:52:46;-3.20;65.70
75994;DHT22;64680;53.800;9.988;2023-04-03T03:55:11;-3.30;65.80
75994;DHT22;64680;53.800;9.988;2023-04-03T03:57:37;-3.30;65.70
75994;DHT22;64680;53.800;9.988;2023-04-03T04:00:03;-3.40;65.40
75994;DHT22;64680;53.800;9.988;2023-04-03T04:02:29;-3.40;65.60
75994;DHT22;64680;53.800;9.988;2023-04-03T04:04:55;-3.40;65.40
75994;DHT22;64680;53.800;9.988;2023-04-03T04:07:21;-3.50;65.30
75994;DHT22;64680;53.800;9.988;2023-04-03T04:09:47;-3.50;65.70
75994;DHT22;64680;53.800;9.988;2023-04-03T04:12:12;-3.50;65.90
75994;DHT22;64680;53.800;9.988;2023-04-03T04:14:38;-3.50;66.00
75994;DHT22;64680;53.800;9.988;2023-04-03T04:17:03;-3.50;66.00
75994;DHT22;64680;53.800;9.988;2023-04-03T04:19:29;-3.50;66.00
75994;DHT22;64680;53.800;9.988;2023-04-03T04:21:55;-3.60;65.90
75994;DHT22;64680;53.800;9.988;2023-04-03T04:24:20;-3.60;66.10
75994;DHT22;64680;53.800;9.988;2023-04-03T04:26:48;-3.60;66.10
75994;DHT22;64680;53.800;9.988;2023-04-03T04:29:14;-3.70;66.00
75994;DHT22;64680;53.800;9.988;2023-04-03T04:31:40;-3.70;66.10
75994;DHT22;64680;53.800;9.988;2023-04-03T04:34:05;-3.70;66.30
75994;DHT22;64680;53.800;9.988;2023-04-03T04:36:31;-3.70;66.40
75994;DHT22;64680;53.800;9.988;2023-04-03T04:38:56;-3.70;66.50
75994;DHT22;64680;53.800;9.988;2023-04-03T04:41:23;-3.70;66.50
75994;DHT22;64680;53.800;9.988;2023-04-03T04:43:50;-3.70;66.50
75994;DHT22;64680;53.800;9.988;2023-04-03T04:46:16;-3.80;66.40
75994;DHT22;64680;53.800;9.988;2023-04-03T04:48:43;-3.80;66.00
75994;DHT22;64680;53.800;9.988;2023-04-03T04:51:08;-3.80;66.10
75994;DHT22;64680;53.800;9.988;2023-04-03T04:53:34;-3.90;65.90
75994;DHT22;64680;53.800;9.988;2023-04-03T04:56:00;-3.90;66.00
75994;DHT22;64680;53.800;9.988;2023-04-03T04:58:25;-3.90;66.00
75994;DHT22;64680;53.800;9.988;2023-04-03T05:01:06;-3.80;66.50
75994;DHT22;64680;53.800;9.988;2023-04-03T05:03:32;-3.80;66.40
75994;DHT22;64680;53.800;9.988;2023-04-03T05:05:58;-3.80;66.30
75994;DHT22;64680;53.800;9.988;2023-04-03T05:08:24;-3.80;66.30
75994;DHT22;64680;53.800;9.988;2023-04-03T05:10:50;-3.80;66.20
75994;DHT22;64680;53.800;9.988;2023-04-03T05:13:16;-3.70;66.10
75994;DHT22;64680;53.800;9.988;2023-04-03T05:15:42;-3.70;66.20
75994;DHT22;64680;53.800;9.988;2023-04-03T05:18:08;-3.60;66.40
75994;DHT22;64680;53.800;9.988;2023-04-03T05:20:34;-3.40;67.40
75994;DHT22;64680;53.800;9.988;2023-04-03T05:23:00;-2.50;68.60
75994;DHT22;64680;53.800;9.988;2023-04-03T05:25:26;-1.60;65.70
75994;DHT22;64680;53.800;9.988;2023-04-03T05:27:52;-0.70;56.50
75994;DHT22;64680;53.800;9.988;2023-04-03T05:30:18;0.30;38.70
75994;DHT22;64680;53.800;9.988;2023-04-03T05:32:43;1.20;29.80
75994;DHT22;64680;53.800;9.988;2023-04-03T05:35:09;1.90;12.30
75994;DHT22;64680;53.800;9.988;2023-04-03T05:37:35;2.00;1.00
75994;DHT22;64680;53.800;9.988;2023-04-03T05:40:05;1.70;1.00
75994;DHT22;64680;53.800;9.988;2023-04-03T05:42:31;1.30;1.00
75994;DHT22;64680;53.800;9.988;2023-04-03T05:44:57;1.10;1.00
75994;DHT22;64680;53.800;9.988;2023-04-03T05:47:22;0.90;1.00
75994;DHT22;64680;53.800;9.988;2023-04-03T05:49:48;0.70;1.80
75994;DHT22;64680;53.800;9.988;2023-04-03T05:52:21;0.30;5.30
75994;DHT22;64680;53.800;9.988;2023-04-03T05:54:48;0.30;9.80
75994;DHT22;64680;53.800;9.988;2023-04-03T05:57:17;0.20;10.00
75994;DHT22;64680;53.800;9.988;2023-04-03T05:59:44;0.30;12.10
75994;DHT22;64680;53.800;9.988;2023-04-03T06:02:16;0.50;13.50
75994;DHT22;64680;53.800;9.988;2023-04-03T06:04:41;1.00;10.80
75994;DHT22;64680;53.800;9.988;2023-04-03T06:07:14;1.40;6.70
75994;DHT22;64680;53.800;9.988;2023-04-03T06:09:41;1.90;4.80
75994;DHT22;64680;53.800;9.988;2023-04-03T06:12:07;2.30;1.00
75994;DHT22;64680;53.800;9.988;2023-04-03T06:14:33;2.50;1.00
75994;DHT22;64680;53.800;9.988;2023-04-03T06:17:01;2.80;1.00
75994;DHT22;64680;53.800;9.988;2023-04-03T06:19:27;3.00;1.00
75994;DHT22;64680;53.800;9.988;2023-04-03T06:21:53;4.20;1.00
75994;DHT22;64680;53.800;9.988;2023-04-03T06:24:19;5.50;1.00
75994;DHT22;64680;53.800;9.988;2023-04-03T06:26:47;6.30;1.00
75994;DHT22;64680;53.800;9.988;2023-04-03T06:29:12;7.10;1.00
75994;DHT22;64680;53.800;9.988;2023-04-03T06:31:38;7.60;1.00
75994;DHT22;64680;53.800;9.988;2023-04-03T06:34:04;8.20;1.00
75994;DHT22;64680;53.800;9.988;2023-04-03T06:36:31;8.50;1.00
75994;DHT22;64680;53.800;9.988;2023-04-03T06:38:57;9.10;1.00
75994;DHT22;64680;53.800;9.988;2023-04-03T06:41:22;9.60;1.00
75994;DHT22;64680;53.800;9.988;2023-04-03T06:43:48;9.80;1.00
75994;DHT22;64680;53.800;9.988;2023-04-03T06:46:15;10.10;1.00
75994;DHT22;64680;53.800;9.988;2023-04-03T06:48:41;10.40;1.00
75994;DHT22;64680;53.800;9.988;2023-04-03T06:51:16;10.70;1.00
75994;DHT22;64680;53.800;9.988;2023-04-03T06:53:43;10.50;1.00
75994;DHT22;64680;53.800;9.988;2023-04-03T06:56:08;9.70;1.00
75994;DHT22;64680;53.800;9.988;2023-04-03T06:58:34;9.30;1.00
75994;DHT22;64680;53.800;9.988;2023-04-03T07:00:59;9.60;1.00
75994;DHT22;64680;53.800;9.988;2023-04-03T07:03:25;9.50;1.00
75994;DHT22;64680;53.800;9.988;2023-04-03T07:05:51;8.70;1.00
75994;DHT22;64680;53.800;9.988;2023-04-03T07:08:16;8.80;1.00
75994;DHT22;64680;53.800;9.988;2023-04-03T07:10:42;8.80;1.00
75994;DHT22;64680;53.800;9.988;2023-04-03T07:13:07;9.20;1.00
75994;DHT22;64680;53.800;9.988;2023-04-03T07:15:33;9.90;1.00
75994;DHT22;64680;53.800;9.988;2023-04-03T07:17:59;9.60;1.00
75994;DHT22;64680;53.800;9.988;2023-04-03T07:20:25;9.10;1.00
75994;DHT22;64680;53.800;9.988;2023-04-03T07:22:50;8.90;1.00
75994;DHT22;64680;53.800;9.988;2023-04-03T07:25:16;9.10;1.00
75994;DHT22;64680;53.800;9.988;2023-04-03T07:27:42;9.40;1.00
75994;DHT22;64680;53.800;9.988;2023-04-03T07:30:08;10.40;1.00
75994;DHT22;64680;53.800;9.988;2023-04-03T07:32:34;11.20;1.00
75994;DHT22;64680;53.800;9.988;2023-04-03T07:35:00;11.20;1.00
75994;DHT22;64680;53.800;9.988;2023-04-03T07:37:26;11.20;1.00
75994;DHT22;64680;53.800;9.988;2023-04-03T07:39:51;11.70;1.00
75994;DHT22;64680;53.800;9.988;2023-04-03T07:42:17;11.70;1.00
75994;DHT22;64680;53.800;9.988;2023-04-03T07:44:43;10.80;1.00
75994;DHT22;64680;53.800;9.988;2023-04-03T07:47:09;10.50;1.00
75994;DHT22;64680;53.800;9.988;2023-04-03T07:49:35;10.60;1.00
75994;DHT22;64680;53.800;9.988;2023-04-03T07:52:03;10.60;1.00
75994;DHT22;64680;53.800;9.988;2023-04-03T07:54:29;10.40;1.00
75994;DHT22;64680;53.800;9.988;2023-04-03T07:56:55;10.50;1.00
75994;DHT22;64680;53.800;9.988;2023-04-03T07:59:22;10.80;1.00
75994;DHT22;64680;53.800;9.988;2023-04-03T08:01:47;10.30;1.00
75994;DHT22;64680;53.800;9.988;2023-04-03T08:04:13;10.30;1.00
75994;DHT22;64680;53.800;9.988;2023-04-03T08:06:38;10.60;1.00
75994;DHT22;64680;53.800;9.988;2023-04-03T08:09:04;10.10;1.00
75994;DHT22;64680;53.800;9.988;2023-04-03T08:11:30;9.60;1.00
75994;DHT22;64680;53.800;9.988;2023-04-03T08:13:56;9.90;1.00
75994;DHT22;64680;53.800;9.988;2023-04-03T08:16:23;9.60;1.00
75994;DHT22;64680;53.800;9.988;2023-04-03T08:18:52;9.70;1.00
75994;DHT22;64680;53.800;9.988;2023-04-03T08:21:18;10.00;1.00
75994;DHT22;64680;53.800;9.988;2023-04-03T08:23:44;10.40;1.00
75994;DHT22;64680;53.800;9.988;2023-04-03T08:26:15;10.70;1.00
75994;DHT22;64680;53.800;9.988;2023-04-03T08:28:41;10.90;1.00
75994;DHT22;64680;53.800;9.988;2023-04-03T08:31:10;11.10;1.00
75994;DHT22;64680;53.800;9.988;2023-04-03T08:33:36;11.30;1.00
75994;DHT22;64680;53.800;9.988;2023-04-03T08:36:07;11.40;1.00
75994;DHT22;64680;53.800;9.988;2023-04-03T08:38:33;11.70;1.00
75994;DHT22;64680;53.800;9.988;2023-04-03T08:41:20;12.30;1.00
75994;DHT22;64680;53.800;9.988;2023-04-03T08:51:52;12.70;1.00
75994;DHT22;64680;53.800;9.988;2023-04-03T08:54:22;12.90;1.00
75994;DHT22;64680;53.800;9.988;2023-04-03T08:56:50;13.20;1.00
75994;DHT22;64680;53.800;9.988;2023-04-03T08:59:23;12.90;1.00
75994;DHT22;64680;53.800;9.988;2023-04-03T09:01:49;11.90;1.00
75994;DHT22;64680;53.800;9.988;2023-04-03T09:04:17;12.00;1.00
75994;DHT22;64680;53.800;9.988;2023-04-03T09:06:48;12.10;1.00
75994;DHT22;64680;53.800;9.988;2023-04-03T09:09:30;11.60;1.00
75994;DHT22;64680;53.800;9.988;2023-04-03T09:12:24;10.40;1.00
75994;DHT22;64680;53.800;9.988;2023-04-03T09:15:08;10.10;1.00
75994;DHT22;64680;53.800;9.988;2023-04-03T09:23:28;11.10;1.00
75994;DHT22;64680;53.800;9.988;2023-04-03T09:26:03;11.80;1.00
75994;DHT22;64680;53.800;9.988;2023-04-03T09:28:34;12.40;1.00
75994;DHT22;64680;53.800;9.988;2023-04-03T09:31:03;12.80;1.00
75994;DHT22;64680;53.800;9.988;2023-04-03T09:33:36;12.60;1.00
75994;DHT22;64680;53.800;9.988;2023-04-03T09:36:02;12.50;1.00
75994;DHT22;64680;53.800;9.988;2023-04-03T09:38:27;12.60;1.00
75994;DHT22;64680;53.800;9.988;2023-04-03T09:43:32;9.00;1.00
75994;DHT22;64680;53.800;9.988;2023-04-03T09:46:38;7.90;1.00
75994;DHT22;64680;53.800;9.988;2023-04-03T09:49:05;8.50;1.00
75994;DHT22;64680;53.800;9.988;2023-04-03T09:51:31;9.60;1.00
75994;DHT22;64680;53.800;9.988;2023-04-03T09:53:57;10.20;1.00
75994;DHT22;64680;53.800;9.988;2023-04-03T09:56:24;11.00;1.00
75994;DHT22;64680;53.800;9.988;2023-04-03T10:06:44;10.90;1.00
75994;DHT22;64680;53.800;9.988;2023-04-03T10:09:30;10.60;1.00
75994;DHT22;64680;53.800;9.988;2023-04-03T10:14:30;10.70;1.00
75994;DHT22;64680;53.800;9.988;2023-04-03T10:17:17;10.90;1.00
75994;DHT22;64680;53.800;9.988;2023-04-03T10:19:57;10.70;1.00
75994;DHT22;64680;53.800;9.988;2023-04-03T10:25:33;10.70;1.00
75994;DHT22;64680;53.800;9.988;2023-04-03T10:30:49;9.30;1.00
75994;DHT22;64680;53.800;9.988;2023-04-03T10:36:12;9.00;1.00
75994;DHT22;64680;53.800;9.988;2023-04-03T10:41:43;9.40;1.00
75994;DHT22;64680;53.800;9.988;2023-04-03T10:44:27;9.40;1.00
75994;DHT22;64680;53.800;9.988;2023-04-03T10:47:04;8.90;1.00
75994;DHT22;64680;53.800;9.988;2023-04-03T10:55:37;9.10;1.00
75994;DHT22;64680;53.800;9.988;2023-04-03T10:57:56;8.80;1.00
75994;DHT22;64680;53.800;9.988;2023-04-03T11:00:38;9.00;1.00
75994;DHT22;64680;53.800;9.988;2023-04-03T11:05:55;8.80;1.00
75994;DHT22;64680;53.800;9.988;2023-04-03T11:08:29;8.50;1.00
75994;DHT22;64680;53.800;9.988;2023-04-03T11:11:00;8.40;1.00
75994;DHT22;64680;53.800;9.988;2023-04-03T11:16:26;9.50;1.00
75994;DHT22;64680;53.800;9.988;2023-04-03T11:19:11;9.40;1.00
75994;DHT22;64680;53.800;9.988;2023-04-03T11:21:42;9.40;1.00
75994;DHT22;64680;53.800;9.988;2023-04-03T11:24:25;8.90;1.00
75994;DHT22;64680;53.800;9.988;2023-04-03T11:26:54;8.20;1.00
75994;DHT22;64680;53.800;9.988;2023-04-03T11:29:26;8.20;1.00
75994;DHT22;64680;53.800;9.988;2023-04-03T11:32:02;8.70;1.00
75994;DHT22;64680;53.800;9.988;2023-04-03T11:34:34;9.30;1.00
75994;DHT22;64680;53.800;9.988;2023-04-03T11:37:10;9.60;1.00
75994;DHT22;64680;53.800;9.988;2023-04-03T11:39:38;9.70;1.00
75994;DHT22;64680;53.800;9.988;2023-04-03T11:44:46;9.60;1.00
75994;DHT22;64680;53.800;9.988;2023-04-03T11:47:46;10.30;1.00
75994;DHT22;64680;53.800;9.988;2023-04-03T12:00:58;10.00;1.00
75994;DHT22;64680;53.800;9.988;2023-04-03T12:45:59;10.40;1.00
75994;DHT22;64680;53.800;9.988;2023-04-03T12:48:28;9.80;1.00
75994;DHT22;64680;53.800;9.988;2023-04-03T12:50:55;9.20;1.00
75994;DHT22;64680;53.800;9.988;2023-04-03T12:53:25;9.20;1.00
75994;DHT22;64680;53.800;9.988;2023-04-03T12:55:55;9.30;1.00
75994;DHT22;64680;53.800;9.988;2023-04-03T12:58:27;9.10;1.00
75994;DHT22;64680;53.800;9.988;2023-04-03T13:01:23;8.90;1.00
75994;DHT22;64680;53.800;9.988;2023-04-03T13:03:53;8.70;1.00
75994;DHT22;64680;53.800;9.988;2023-04-03T13:06:26;8.50;1.00
75994;DHT22;64680;53.800;9.988;2023-04-03T13:08:57;8.20;1.00
75994;DHT22;64680;53.800;9.988;2023-04-03T13:11:26;7.90;1.00
75994;DHT22;64680;53.800;9.988;2023-04-03T13:14:00;8.00;1.00
75994;DHT22;64680;53.800;9.988;2023-04-03T13:16:27;7.80;1.00
75994;DHT22;64680;53.800;9.988;2023-04-03T13:18:53;8.40;1.00
75994;DHT22;64680;53.800;9.988;2023-04-03T13:21:22;8.50;1.00
75994;DHT22;64680;53.800;9.988;2023-04-03T13:23:52;8.40;1.00
75994;DHT22;64680;53.800;9.988;2023-04-03T13:26:20;8.20;1.00
75994;DHT22;64680;53.800;9.988;2023-04-03T13:28:46;7.80;1.00
75994;DHT22;64680;53.800;9.988;2023-04-03T13:33:58;7.50;1.00
75994;DHT22;64680;53.800;9.988;2023-04-03T13:36:37;7.60;1.00
75994;DHT22;64680;53.800;9.988;2023-04-03T13:41:49;8.20;1.00
75994;DHT22;64680;53.800;9.988;2023-04-03T13:44:35;8.70;1.00
75994;DHT22;64680;53.800;9.988;2023-04-03T13:47:19;8.90;1.00
75994;DHT22;64680;53.800;9.988;2023-04-03T13:55:24;9.70;1.00
75994;DHT22;64680;53.800;9.988;2023-04-03T14:03:00;9.30;1.00
75994;DHT22;64680;53.800;9.988;2023-04-03T14:05:26;9.20;1.00
75994;DHT22;64680;53.800;9.988;2023-04-03T14:07:53;8.90;1.00
75994;DHT22;64680;53.800;9.988;2023-04-03T14:10:20;8.60;1.00
75994;DHT22;64680;53.800;9.988;2023-04-03T14:12:46;8.50;1.00
75994;DHT22;64680;53.800;9.988;2023-04-03T14:15:25;8.10;1.00
75994;DHT22;64680;53.800;9.988;2023-04-03T14:17:52;7.70;1.00
75994;DHT22;64680;53.800;9.988;2023-04-03T14:20:21;7.70;1.00
75994;DHT22;64680;53.800;9.988;2023-04-03T14:22:48;8.30;1.00
75994;DHT22;64680;53.800;9.988;2023-04-03T14:25:15;8.00;1.00
75994;DHT22;64680;53.800;9.988;2023-04-03T14:27:43;8.50;1.00
75994;DHT22;64680;53.800;9.988;2023-04-03T14:30:14;8.80;1.00
75994;DHT22;64680;53.800;9.988;2023-04-03T14:32:41;8.90;1.00
75994;DHT22;64680;53.800;9.988;2023-04-03T14:35:06;8.90;1.00
75994;DHT22;64680;53.800;9.988;2023-04-03T14:37:32;8.90;1.00
75994;DHT22;64680;53.800;9.988;2023-04-03T14:40:00;8.80;1.00
75994;DHT22;64680;53.800;9.988;2023-04-03T14:42:29;8.50;1.00
75994;DHT22;64680;53.800;9.988;2023-04-03T14:44:56;8.60;1.00
75994;DHT22;64680;53.800;9.988;2023-04-03T14:47:25;8.60;1.00
75994;DHT22;64680;53.800;9.988;2023-04-03T14:49:51;8.60;1.00
75994;DHT22;64680;53.800;9.988;2023-04-03T14:52:29;8.60;1.00
75994;DHT22;64680;53.800;9.988;2023-04-03T14:54:56;8.70;1.00
75994;DHT22;64680;53.800;9.988;2023-04-03T14:57:24;8.60;1.00
75994;DHT22;64680;53.800;9.988;2023-04-03T14:59:50;8.60;1.00
75994;DHT22;64680;53.800;9.988;2023-04-03T15:02:25;8.10;1.00
75994;DHT22;64680;53.800;9.988;2023-04-03T15:04:52;7.90;1.00
75994;DHT22;64680;53.800;9.988;2023-04-03T15:07:18;7.50;1.00
75994;DHT22;64680;53.800;9.988;2023-04-03T15:09:43;7.30;1.00
75994;DHT22;64680;53.800;9.988;2023-04-03T15:12:12;7.40;1.00
75994;DHT22;64680;53.800;9.988;2023-04-03T15:14:38;7.40;1.00
75994;DHT22;64680;53.800;9.988;2023-04-03T15:17:16;7.00;1.00
75994;DHT22;64680;53.800;9.988;2023-04-03T15:19:42;6.80;1.00
75994;DHT22;64680;53.800;9.988;2023-04-03T15:22:16;6.80;1.00
75994;DHT22;64680;53.800;9.988;2023-04-03T15:24:43;7.00;1.00
75994;DHT22;64680;53.800;9.988;2023-04-03T15:27:10;7.30;1.00
75994;DHT22;64680;53.800;9.988;2023-04-03T15:29:36;7.40;1.00
75994;DHT22;64680;53.800;9.988;2023-04-03T15:32:02;7.50;1.00
75994;DHT22;64680;53.800;9.988;2023-04-03T15:34:28;7.60;1.00
75994;DHT22;64680;53.800;9.988;2023-04-03T15:36:54;7.60;1.00
75994;DHT22;64680;53.800;9.988;2023-04-03T15:39:20;7.40;1.00
75994;DHT22;64680;53.800;9.988;2023-04-03T15:41:46;7.00;1.00
75994;DHT22;64680;53.800;9.988;2023-04-03T15:44:12;6.70;1.00
75994;DHT22;64680;53.800;9.988;2023-04-03T15:46:38;6.40;1.00
75994;DHT22;64680;53.800;9.988;2023-04-03T15:49:04;6.30;1.00
75994;DHT22;64680;53.800;9.988;2023-04-03T15:51:31;6.30;1.00
75994;DHT22;64680;53.800;9.988;2023-04-03T15:53:57;6.50;1.00
75994;DHT22;64680;53.800;9.988;2023-04-03T15:56:22;6.70;1.00
75994;DHT22;64680;53.800;9.988;2023-04-03T15:58:48;6.70;1.00
75994;DHT22;64680;53.800;9.988;2023-04-03T16:01:14;6.50;1.00
75994;DHT22;64680;53.800;9.988;2023-04-03T16:03:41;6.40;1.00
75994;DHT22;64680;53.800;9.988;2023-04-03T16:06:12;6.20;1.00
75994;DHT22;64680;53.800;9.988;2023-04-03T16:08:38;6.10;1.00
75994;DHT22;64680;53.800;9.988;2023-04-03T16:11:04;6.00;1.00
75994;DHT22;64680;53.800;9.988;2023-04-03T16:13:29;5.80;1.00
75994;DHT22;64680;53.800;9.988;2023-04-03T16:15:56;5.70;1.00
75994;DHT22;64680;53.800;9.988;2023-04-03T16:18:21;5.70;1.00
75994;DHT22;64680;53.800;9.988;2023-04-03T16:20:47;5.60;1.00
75994;DHT22;64680;53.800;9.988;2023-04-03T16:23:13;5.60;1.00
75994;DHT22;64680;53.800;9.988;2023-04-03T16:25:39;5.60;1.00
75994;DHT22;64680;53.800;9.988;2023-04-03T16:28:04;5.50;1.00
75994;DHT22;64680;53.800;9.988;2023-04-03T16:30:30;5.40;1.00
75994;DHT22;64680;53.800;9.988;2023-04-03T16:32:56;5.40;1.00
75994;DHT22;64680;53.800;9.988;2023-04-03T16:35:22;5.40;1.00
75994;DHT22;64680;53.800;9.988;2023-04-03T16:37:48;5.20;1.00
75994;DHT22;64680;53.800;9.988;2023-04-03T16:40:14;5.20;1.00
75994;DHT22;64680;53.800;9.988;2023-04-03T16:42:40;5.10;1.00
75994;DHT22;64680;53.800;9.988;2023-04-03T16:45:06;5.00;1.00
75994;DHT22;64680;53.800;9.988;2023-04-03T16:47:32;4.90;1.00
75994;DHT22;64680;53.800;9.988;2023-04-03T16:49:58;4.90;1.00
75994;DHT22;64680;53.800;9.988;2023-04-03T16:52:24;4.80;1.00
75994;DHT22;64680;53.800;9.988;2023-04-03T16:54:49;4.70;1.00
75994;DHT22;64680;53.800;9.988;2023-04-03T16:57:21;4.70;1.00
75994;DHT22;64680;53.800;9.988;2023-04-03T16:59:46;4.60;1.00
75994;DHT22;64680;53.800;9.988;2023-04-03T17:02:12;4.50;1.00
75994;DHT22;64680;53.800;9.988;2023-04-03T17:04:38;4.50;1.00
75994;DHT22;64680;53.800;9.988;2023-04-03T17:07:03;4.50;1.00
75994;DHT22;64680;53.800;9.988;2023-04-03T17:09:32;4.40;1.00
75994;DHT22;64680;53.800;9.988;2023-04-03T17:11:58;4.30;1.00
75994;DHT22;64680;53.800;9.988;2023-04-03T17:14:24;4.30;1.00
75994;DHT22;64680;53.800;9.988;2023-04-03T17:16:50;4.20;1.00
75994;DHT22;64680;53.800;9.988;2023-04-03T17:19:17;4.10;1.00
75994;DHT22;64680;53.800;9.988;2023-04-03T17:21:43;4.10;1.00
75994;DHT22;64680;53.800;9.988;2023-04-03T17:24:11;4.00;1.00
75994;DHT22;64680;53.800;9.988;2023-04-03T17:26:40;4.00;1.00
75994;DHT22;64680;53.800;9.988;2023-04-03T17:29:06;3.90;1.00
75994;DHT22;64680;53.800;9.988;2023-04-03T17:31:32;3.90;1.00
75994;DHT22;64680;53.800;9.988;2023-04-03T17:33:58;3.70;1.00
75994;DHT22;64680;53.800;9.988;2023-04-03T17:36:27;3.60;1.00
75994;DHT22;64680;53.800;9.988;2023-04-03T17:38:53;3.50;1.00
75994;DHT22;64680;53.800;9.988;2023-04-03T17:41:19;3.50;1.00
75994;DHT22;64680;53.800;9.988;2023-04-03T17:43:45;3.40;1.00
75994;DHT22;64680;53.800;9.988;2023-04-03T17:46:11;3.40;1.00
75994;DHT22;64680;53.800;9.988;2023-04-03T17:48:39;3.30;1.00
75994;DHT22;64680;53.800;9.988;2023-04-03T17:51:13;3.10;1.00
75994;DHT22;64680;53.800;9.988;2023-04-03T17:53:39;3.00;1.00
75994;DHT22;64680;53.800;9.988;2023-04-03T17:56:10;2.90;1.00
75994;DHT22;64680;53.800;9.988;2023-04-03T17:58:40;2.80;1.00
75994;DHT22;64680;53.800;9.988;2023-04-03T18:01:12;2.70;1.00
75994;DHT22;64680;53.800;9.988;2023-04-03T18:03:38;2.60;1.00